Time;durP1;ratioP1;P1;durP2;ratioP2;P2;SDS_P1;SDS_P2;PMS_P1;PMS_P2;Temp;Humidity;BMP_temperature;BMP_pressure;BME280_temperature;BME280_humidity;BME280_pressure;Samples;Min_cycle;Max_cycle;Signal;HPM_P1;HPM_P2
2022/03/24 00:00:06;;;;;;;;;;;;;;;;;;1041470;28;1013;-37
2022/03/24 00:00:42;;;;;;;;;;;;;;;;;;1041274;28;760;-35
2022/03/24 00:01:13;;;;;;;;;;;;;;;;;;1021535;28;7976;-38
2022/03/24 00:01:43;;;;;;;;;;;;;;;;;;170976;28;10000956;-36
2022/03/24 00:02:28;;;;;;;;;;;;;;;;;;797026;28;10000062;-40
2022/03/24 00:03:09;;;;;;;;;;;;;;;;;;6;848;10001005;-39
2022/03/24 00:03:41;;;;;;;;;;;;;;;;;;986635;28;7007;-37
2022/03/24 00:04:11;;;;;;;;;;;;;;;;;;984367;28;7189;-40
2022/03/24 00:04:43;;;;;;;;;;;;;;;;;;984685;28;6583;-38
2022/03/24 00:05:14;;;;;;;;;;;;;;;;;;987968;28;6734;-41
2022/03/24 00:05:45;;;;;;;;;;;;;;;;;;988575;28;8047;-41
2022/03/24 00:06:17;;;;;;;;;;;;;;;;;;990757;28;8308;-41
2022/03/24 00:06:48;;;;;;;;;;;;;;;;;;984611;28;5606;-39
2022/03/24 00:07:19;;;;;;;;;;;;;;;;;;986140;28;7514;-40
2022/03/24 00:07:50;;;;;;;;;;;;;;;;;;983325;28;6459;-39
2022/03/24 00:08:22;;;;;;;;;;;;;;;;;;979466;28;7218;-40
2022/03/24 00:08:53;;;;;;;;;;;;;;;;;;971144;28;4910;-40
2022/03/24 00:09:25;;;;;;;;;;;;;;;;;;976552;28;6819;-41
2022/03/24 00:09:56;;;;;;;;;;;;;;;;;;977738;28;7788;-40
2022/03/24 00:10:27;;;;;;;;;;;;;;;;;;978335;28;6511;-35
2022/03/24 00:11:00;;;;;;;;;;;;;;;;;;955892;28;5039;-40
2022/03/24 00:11:31;;;;;;;;;;;;;;;;;;966750;28;6212;-41
2022/03/24 00:12:03;;;;;;;;;;;;;;;;;;964035;28;7696;-38
2022/03/24 00:12:35;;;;;;;;;;;;;;;;;;981261;28;8109;-35
2022/03/24 00:13:08;;;;;;;;;;;;;;;;;;970153;28;6908;-39
2022/03/24 00:13:38;;;;;;;;;;;;;;;;;;975347;28;6063;-41
2022/03/24 00:14:09;;;;;;;;;;;;;;;;;;977210;28;7100;-37
2022/03/24 00:14:40;;;;;;;;;;;;;;;;;;984156;28;6894;-35
2022/03/24 00:15:10;;;;;;;;;;;;;;;;;;1036680;28;870;-33
2022/03/24 00:15:41;;;;;;;;;;;;;;;;;;1036927;28;648;-36
2022/03/24 00:16:11;;;;;;;;;;;;;;;;;;1036959;28;783;-36
2022/03/24 00:16:42;;;;;;;;;;;;;;;;;;1040842;28;883;-36
2022/03/24 00:17:12;;;;;;;;;;;;;;;;;;1041216;28;1688;-31
2022/03/24 00:17:43;;;;;;;;;;;;;;;;;;1041162;28;906;-34
2022/03/24 00:18:14;;;;;;;;;;;;;;;;;;1041243;28;1484;-37
2022/03/24 00:18:45;;;;;;;;;;;;;;;;;;1041339;28;783;-35
2022/03/24 00:19:17;;;;;;;;;;;;;;;;;;1041193;28;1007;-37
2022/03/24 00:19:47;;;;;;;;;;;;;;;;;;1042057;28;820;-31
2022/03/24 00:20:18;;;;;;;;;;;;;;;;;;1041282;28;800;-31
2022/03/24 00:20:48;;;;;;;;;;;;;;;;;;1041611;28;818;-31
2022/03/24 00:21:19;;;;;;;;;;;;;;;;;;1041169;28;949;-36
2022/03/24 00:21:50;;;;;;;;;;;;;;;;;;1041144;28;831;-34
2022/03/24 00:22:20;;;;;;;;;;;;;;;;;;1041282;28;930;-36
2022/03/24 00:22:50;;;;;;;;;;;;;;;;;;1040969;28;966;-35
2022/03/24 00:23:20;;;;;;;;;;;;;;;;;;1041046;28;1018;-35
2022/03/24 00:23:51;;;;;;;;;;;;;;;;;;1041522;28;898;-35
2022/03/24 00:24:21;;;;;;;;;;;;;;;;;;1041186;28;787;-35
2022/03/24 00:24:52;;;;;;;;;;;;;;;;;;1041440;28;807;-31
2022/03/24 00:25:24;;;;;;;;;;;;;;;;;;1041169;28;1116;-34
2022/03/24 00:25:54;;;;;;;;;;;;;;;;;;1041425;28;910;-36
2022/03/24 00:26:25;;;;;;;;;;;;;;;;;;1041405;28;806;-35
2022/03/24 00:26:55;;;;;;;;;;;;;;;;;;1041357;28;829;-36
2022/03/24 00:27:27;;;;;;;;;;;;;;;;;;1041037;28;842;-34
2022/03/24 00:27:57;;;;;;;;;;;;;;;;;;1041575;28;878;-35
2022/03/24 00:28:28;;;;;;;;;;;;;;;;;;1042912;28;795;-37
2022/03/24 00:28:58;;;;;;;;;;;;;;;;;;1040648;28;930;-31
2022/03/24 00:29:28;;;;;;;;;;;;;;;;;;1036660;28;1519;-34
2022/03/24 00:29:59;;;;;;;;;;;;;;;;;;1036257;28;808;-35
2022/03/24 00:30:30;;;;;;;;;;;;;;;;;;1036916;28;954;-35
2022/03/24 00:31:02;;;;;;;;;;;;;;;;;;1036135;28;925;-31
2022/03/24 00:31:33;;;;;;;;;;;;;;;;;;1039466;28;846;-36
2022/03/24 00:32:05;;;;;;;;;;;;;;;;;;1034791;28;1190;-34
2022/03/24 00:32:36;;;;;;;;;;;;;;;;;;1034964;28;852;-32
2022/03/24 00:33:07;;;;;;;;;;;;;;;;;;1035200;28;1898;-33
2022/03/24 00:33:38;;;;;;;;;;;;;;;;;;1035877;28;931;-35
2022/03/24 00:34:10;;;;;;;;;;;;;;;;;;1035842;28;1088;-34
2022/03/24 00:34:41;;;;;;;;;;;;;;;;;;1035710;28;1540;-30
2022/03/24 00:35:12;;;;;;;;;;;;;;;;;;1035797;28;895;-33
2022/03/24 00:35:43;;;;;;;;;;;;;;;;;;1036562;28;839;-32
2022/03/24 00:36:14;;;;;;;;;;;;;;;;;;1039911;28;1017;-36
2022/03/24 00:36:44;;;;;;;;;;;;;;;;;;1040291;28;890;-32
2022/03/24 00:37:17;;;;;;;;;;;;;;;;;;1040068;28;907;-36
2022/03/24 00:37:47;;;;;;;;;;;;;;;;;;1039862;28;879;-36
2022/03/24 00:38:18;;;;;;;;;;;;;;;;;;1039788;28;851;-36
2022/03/24 00:38:52;;;;;;;;;;;;;;;;;;1039880;28;898;-34
2022/03/24 00:39:22;;;;;;;;;;;;;;;;;;1039853;28;851;-35
2022/03/24 00:39:53;;;;;;;;;;;;;;;;;;1035898;28;787;-34
2022/03/24 00:40:23;;;;;;;;;;;;;;;;;;1035632;28;842;-34
2022/03/24 00:40:55;;;;;;;;;;;;;;;;;;1035971;28;949;-31
2022/03/24 00:41:28;;;;;;;;;;;;;;;;;;1036204;28;860;-31
2022/03/24 00:42:03;;;;;;;;;;;;;;;;;;1040282;28;939;-31
2022/03/24 00:42:36;;;;;;;;;;;;;;;;;;1035580;28;665;-35
2022/03/24 00:43:08;;;;;;;;;;;;;;;;;;1035902;28;1200;-34
2022/03/24 00:43:39;;;;;;;;;;;;;;;;;;1035827;28;791;-36
2022/03/24 00:44:09;;;;;;;;;;;;;;;;;;1036609;28;1025;-32
2022/03/24 00:44:43;;;;;;;;;;;;;;;;;;1035693;28;835;-31
2022/03/24 00:45:15;;;;;;;;;;;;;;;;;;1035593;28;866;-35
2022/03/24 00:45:45;;;;;;;;;;;;;;;;;;1035877;28;930;-36
2022/03/24 00:46:16;;;;;;;;;;;;;;;;;;1032290;28;676;-32
2022/03/24 00:46:46;;;;;;;;;;;;;;;;;;1035730;28;990;-36
2022/03/24 00:47:17;;;;;;;;;;;;;;;;;;1035848;28;1275;-37
2022/03/24 00:47:49;;;;;;;;;;;;;;;;;;1031889;28;855;-34
2022/03/24 00:48:19;;;;;;;;;;;;;;;;;;1035795;28;1021;-34
2022/03/24 00:48:51;;;;;;;;;;;;;;;;;;1035668;28;1111;-33
2022/03/24 00:49:21;;;;;;;;;;;;;;;;;;1035919;28;795;-35
2022/03/24 00:49:53;;;;;;;;;;;;;;;;;;1040319;28;1075;-34
2022/03/24 00:50:23;;;;;;;;;;;;;;;;;;1040264;28;934;-35
2022/03/24 00:50:54;;;;;;;;;;;;;;;;;;1039730;28;1121;-34
2022/03/24 00:51:24;;;;;;;;;;;;;;;;;;1040044;28;843;-36
2022/03/24 00:51:55;;;;;;;;;;;;;;;;;;1035633;28;930;-31
2022/03/24 00:52:25;;;;;;;;;;;;;;;;;;1035576;28;779;-36
2022/03/24 00:52:58;;;;;;;;;;;;;;;;;;1035639;28;1977;-36
2022/03/24 00:53:29;;;;;;;;;;;;;;;;;;1036192;28;838;-33
2022/03/24 00:54:00;;;;;;;;;;;;;;;;;;1039796;28;929;-32
2022/03/24 00:54:30;;;;;;;;;;;;;;;;;;1039689;28;826;-35
2022/03/24 00:55:01;;;;;;;;;;;;;;;;;;1035821;28;867;-32
2022/03/24 00:55:31;;;;;;;;;;;;;;;;;;1035977;28;1029;-35
2022/03/24 00:56:02;;;;;;;;;;;;;;;;;;1040181;28;997;-36
2022/03/24 00:56:32;;;;;;;;;;;;;;;;;;1040295;28;1005;-35
2022/03/24 00:57:02;;;;;;;;;;;;;;;;;;1040185;28;863;-32
2022/03/24 00:57:33;;;;;;;;;;;;;;;;;;1039804;28;899;-35
2022/03/24 00:58:04;;;;;;;;;;;;;;;;;;1035794;28;1161;-33
2022/03/24 00:58:35;;;;;;;;;;;;;;;;;;1035490;28;875;-33
2022/03/24 00:59:06;;;;;;;;;;;;;;;;;;1035808;28;1362;-36
2022/03/24 00:59:36;;;;;;;;;;;;;;;;;;1035643;28;1272;-33
2022/03/24 01:00:07;;;;;;;;;;;;;;;;;;1039758;28;787;-31
2022/03/24 01:00:40;;;;;;;;;;;;;;;;;;1039839;28;843;-34
2022/03/24 01:01:12;;;;;;;;;;;;;;;;;;1039925;28;877;-36
2022/03/24 01:01:43;;;;;;;;;;;;;;;;;;1035626;28;914;-33
2022/03/24 01:02:14;;;;;;;;;;;;;;;;;;1035933;28;815;-33
2022/03/24 01:02:45;;;;;;;;;;;;;;;;;;1035670;28;1236;-34
2022/03/24 01:03:16;;;;;;;;;;;;;;;;;;1031639;28;1205;-34
2022/03/24 01:03:46;;;;;;;;;;;;;;;;;;1027645;28;2396;-34
2022/03/24 01:04:16;;;;;;;;;;;;;;;;;;1031851;28;969;-35
2022/03/24 01:04:47;;;;;;;;;;;;;;;;;;1035860;28;823;-35
2022/03/24 01:05:18;;;;;;;;;;;;;;;;;;1035693;28;831;-36
2022/03/24 01:05:48;;;;;;;;;;;;;;;;;;1040299;28;965;-33
2022/03/24 01:06:25;;;;;;;;;;;;;;;;;;1040126;28;859;-36
2022/03/24 01:06:55;;;;;;;;;;;;;;;;;;1035705;28;859;-34
2022/03/24 01:07:25;;;;;;;;;;;;;;;;;;1035456;28;803;-32
2022/03/24 01:07:55;;;;;;;;;;;;;;;;;;1035652;28;882;-35
2022/03/24 01:08:29;;;;;;;;;;;;;;;;;;1031742;28;905;-34
2022/03/24 01:09:03;;;;;;;;;;;;;;;;;;1031923;28;692;-29
2022/03/24 01:09:33;;;;;;;;;;;;;;;;;;1035790;28;1025;-35
2022/03/24 01:10:04;;;;;;;;;;;;;;;;;;1036416;28;851;-30
2022/03/24 01:10:38;;;;;;;;;;;;;;;;;;1035463;28;1412;-31
2022/03/24 01:11:08;;;;;;;;;;;;;;;;;;1035855;28;940;-33
2022/03/24 01:11:40;;;;;;;;;;;;;;;;;;1031442;28;1111;-35
2022/03/24 01:12:11;;;;;;;;;;;;;;;;;;1032396;28;775;-33
2022/03/24 01:12:42;;;;;;;;;;;;;;;;;;1035727;28;989;-35
2022/03/24 01:13:12;;;;;;;;;;;;;;;;;;1035767;28;1902;-32
2022/03/24 01:13:43;;;;;;;;;;;;;;;;;;1039819;28;945;-34
2022/03/24 01:14:16;;;;;;;;;;;;;;;;;;1039747;28;989;-36
2022/03/24 01:14:46;;;;;;;;;;;;;;;;;;1039590;28;791;-35
2022/03/24 01:15:18;;;;;;;;;;;;;;;;;;1040136;28;977;-35
2022/03/24 01:15:49;;;;;;;;;;;;;;;;;;1040088;28;996;-29
2022/03/24 01:16:23;;;;;;;;;;;;;;;;;;1035603;28;1257;-35
2022/03/24 01:16:53;;;;;;;;;;;;;;;;;;1035619;28;772;-34
2022/03/24 01:17:25;;;;;;;;;;;;;;;;;;1031669;28;1267;-33
2022/03/24 01:17:59;;;;;;;;;;;;;;;;;;1031871;28;848;-33
2022/03/24 01:18:32;;;;;;;;;;;;;;;;;;1035641;28;977;-32
2022/03/24 01:19:04;;;;;;;;;;;;;;;;;;1036792;28;985;-36
2022/03/24 01:19:35;;;;;;;;;;;;;;;;;;1035573;28;1173;-35
2022/03/24 01:20:07;;;;;;;;;;;;;;;;;;1035666;28;792;-32
2022/03/24 01:20:37;;;;;;;;;;;;;;;;;;1035704;28;1209;-30
2022/03/24 01:21:07;;;;;;;;;;;;;;;;;;1035971;28;836;-33
2022/03/24 01:21:38;;;;;;;;;;;;;;;;;;1039833;28;918;-32
2022/03/24 01:22:09;;;;;;;;;;;;;;;;;;1039434;28;905;-31
2022/03/24 01:22:39;;;;;;;;;;;;;;;;;;1040106;28;874;-34
2022/03/24 01:23:11;;;;;;;;;;;;;;;;;;1040373;28;847;-30
2022/03/24 01:23:41;;;;;;;;;;;;;;;;;;1040011;28;895;-34
2022/03/24 01:24:12;;;;;;;;;;;;;;;;;;1040187;28;898;-31
2022/03/24 01:24:42;;;;;;;;;;;;;;;;;;1040184;28;945;-32
2022/03/24 01:25:16;;;;;;;;;;;;;;;;;;1037159;28;1612;-35
2022/03/24 01:25:46;;;;;;;;;;;;;;;;;;1039943;28;949;-35
2022/03/24 01:26:17;;;;;;;;;;;;;;;;;;1039607;28;1023;-36
2022/03/24 01:26:47;;;;;;;;;;;;;;;;;;1040063;28;878;-32
2022/03/24 01:27:18;;;;;;;;;;;;;;;;;;1043827;28;869;-32
2022/03/24 01:27:49;;;;;;;;;;;;;;;;;;1041681;28;1019;-34
2022/03/24 01:28:20;;;;;;;;;;;;;;;;;;1043869;28;953;-35
2022/03/24 01:28:50;;;;;;;;;;;;;;;;;;1039508;28;1128;-32
2022/03/24 01:29:23;;;;;;;;;;;;;;;;;;1035648;28;795;-35
2022/03/24 01:29:54;;;;;;;;;;;;;;;;;;1039813;28;791;-34
2022/03/24 01:30:25;;;;;;;;;;;;;;;;;;1040208;28;842;-31
2022/03/24 01:30:55;;;;;;;;;;;;;;;;;;1044124;28;918;-33
2022/03/24 01:31:25;;;;;;;;;;;;;;;;;;1044283;28;934;-32
2022/03/24 01:31:58;;;;;;;;;;;;;;;;;;1044106;28;1556;-32
2022/03/24 01:32:28;;;;;;;;;;;;;;;;;;1044319;28;893;-34
2022/03/24 01:32:58;;;;;;;;;;;;;;;;;;1044040;28;1958;-34
2022/03/24 01:33:29;;;;;;;;;;;;;;;;;;1043887;28;1587;-36
2022/03/24 01:33:59;;;;;;;;;;;;;;;;;;1039705;28;1554;-32
2022/03/24 01:34:30;;;;;;;;;;;;;;;;;;1039680;28;914;-34
2022/03/24 01:35:01;;;;;;;;;;;;;;;;;;1039649;28;847;-35
2022/03/24 01:35:32;;;;;;;;;;;;;;;;;;1039978;28;790;-33
2022/03/24 01:36:02;;;;;;;;;;;;;;;;;;1043728;28;1131;-34
2022/03/24 01:36:32;;;;;;;;;;;;;;;;;;1043823;28;965;-36
2022/03/24 01:37:03;;;;;;;;;;;;;;;;;;1043462;28;932;-30
2022/03/24 01:37:35;;;;;;;;;;;;;;;;;;1039714;28;1122;-35
2022/03/24 01:38:07;;;;;;;;;;;;;;;;;;1043759;28;1263;-33
2022/03/24 01:38:40;;;;;;;;;;;;;;;;;;1043799;28;791;-33
2022/03/24 01:39:12;;;;;;;;;;;;;;;;;;1040778;28;1188;-34
2022/03/24 01:39:42;;;;;;;;;;;;;;;;;;1042955;28;862;-32
2022/03/24 01:40:13;;;;;;;;;;;;;;;;;;1035767;28;1161;-35
2022/03/24 01:40:44;;;;;;;;;;;;;;;;;;1031612;28;1227;-33
2022/03/24 01:41:14;;;;;;;;;;;;;;;;;;1035554;28;910;-33
2022/03/24 01:41:45;;;;;;;;;;;;;;;;;;1035790;28;958;-33
2022/03/24 01:42:17;;;;;;;;;;;;;;;;;;1035660;28;1149;-34
2022/03/24 01:42:47;;;;;;;;;;;;;;;;;;1039866;28;862;-35
2022/03/24 01:43:19;;;;;;;;;;;;;;;;;;1039719;28;827;-35
2022/03/24 01:43:49;;;;;;;;;;;;;;;;;;1044038;28;1316;-33
2022/03/24 01:44:21;;;;;;;;;;;;;;;;;;1047443;28;954;-33
2022/03/24 01:44:52;;;;;;;;;;;;;;;;;;1047934;28;1230;-33
2022/03/24 01:45:23;;;;;;;;;;;;;;;;;;1047637;28;830;-34
2022/03/24 01:45:55;;;;;;;;;;;;;;;;;;1039543;28;1170;-34
2022/03/24 01:46:25;;;;;;;;;;;;;;;;;;1039682;28;898;-31
2022/03/24 01:46:58;;;;;;;;;;;;;;;;;;1039620;28;1451;-31
2022/03/24 01:47:28;;;;;;;;;;;;;;;;;;1039974;28;945;-35
2022/03/24 01:47:58;;;;;;;;;;;;;;;;;;1043677;28;941;-35
2022/03/24 01:48:30;;;;;;;;;;;;;;;;;;1047841;28;1319;-34
2022/03/24 01:49:00;;;;;;;;;;;;;;;;;;1043691;28;818;-35
2022/03/24 01:49:35;;;;;;;;;;;;;;;;;;1043786;28;743;-35
2022/03/24 01:50:06;;;;;;;;;;;;;;;;;;1038898;28;2324;-34
2022/03/24 01:50:37;;;;;;;;;;;;;;;;;;1036403;28;811;-34
2022/03/24 01:51:07;;;;;;;;;;;;;;;;;;1039747;28;890;-31
2022/03/24 01:51:37;;;;;;;;;;;;;;;;;;1039516;28;890;-31
2022/03/24 01:52:09;;;;;;;;;;;;;;;;;;1044217;28;775;-34
2022/03/24 01:52:39;;;;;;;;;;;;;;;;;;1044268;28;796;-35
2022/03/24 01:53:11;;;;;;;;;;;;;;;;;;1044076;28;2034;-35
2022/03/24 01:53:41;;;;;;;;;;;;;;;;;;1044136;28;1609;-34
2022/03/24 01:54:12;;;;;;;;;;;;;;;;;;1039598;28;1136;-34
2022/03/24 01:54:44;;;;;;;;;;;;;;;;;;1039703;28;810;-34
2022/03/24 01:55:14;;;;;;;;;;;;;;;;;;1035646;28;1068;-31
2022/03/24 01:55:45;;;;;;;;;;;;;;;;;;1035657;28;1513;-33
2022/03/24 01:56:16;;;;;;;;;;;;;;;;;;1043712;28;1313;-29
2022/03/24 01:56:46;;;;;;;;;;;;;;;;;;1039747;28;2648;-34
2022/03/24 01:57:17;;;;;;;;;;;;;;;;;;1043775;28;803;-33
2022/03/24 01:57:49;;;;;;;;;;;;;;;;;;1043275;28;1163;-32
2022/03/24 01:58:21;;;;;;;;;;;;;;;;;;1035407;28;1424;-33
2022/03/24 01:58:53;;;;;;;;;;;;;;;;;;1031792;28;1249;-30
2022/03/24 01:59:24;;;;;;;;;;;;;;;;;;1035459;28;1375;-35
2022/03/24 01:59:54;;;;;;;;;;;;;;;;;;1035466;28;842;-34
2022/03/24 02:00:25;;;;;;;;;;;;;;;;;;1036010;28;875;-29
2022/03/24 02:01:00;;;;;;;;;;;;;;;;;;1039638;28;866;-33
2022/03/24 02:01:35;;;;;;;;;;;;;;;;;;1044116;28;810;-30
2022/03/24 02:02:06;;;;;;;;;;;;;;;;;;1044061;28;950;-31
2022/03/24 02:02:37;;;;;;;;;;;;;;;;;;1044186;28;782;-34
2022/03/24 02:03:13;;;;;;;;;;;;;;;;;;1043693;28;1264;-32
2022/03/24 02:03:44;;;;;;;;;;;;;;;;;;1043800;28;802;-34
2022/03/24 02:04:15;;;;;;;;;;;;;;;;;;1043577;28;1215;-31
2022/03/24 02:04:45;;;;;;;;;;;;;;;;;;1039666;28;1260;-35
2022/03/24 02:05:19;;;;;;;;;;;;;;;;;;1039636;28;1354;-35
2022/03/24 02:05:49;;;;;;;;;;;;;;;;;;1039616;28;952;-32
2022/03/24 02:06:21;;;;;;;;;;;;;;;;;;1039795;28;1306;-36
2022/03/24 02:06:52;;;;;;;;;;;;;;;;;;1039670;28;1320;-36
2022/03/24 02:07:22;;;;;;;;;;;;;;;;;;1043577;28;1191;-33
2022/03/24 02:07:53;;;;;;;;;;;;;;;;;;1043542;28;823;-34
2022/03/24 02:08:23;;;;;;;;;;;;;;;;;;1039537;28;1411;-28
2022/03/24 02:08:55;;;;;;;;;;;;;;;;;;1035297;28;1146;-36
2022/03/24 02:09:25;;;;;;;;;;;;;;;;;;1035827;28;1141;-36
2022/03/24 02:09:56;;;;;;;;;;;;;;;;;;1035699;28;906;-33
2022/03/24 02:10:26;;;;;;;;;;;;;;;;;;1035444;28;1200;-32
2022/03/24 02:10:57;;;;;;;;;;;;;;;;;;1035615;28;831;-30
2022/03/24 02:11:28;;;;;;;;;;;;;;;;;;1035373;28;1323;-35
2022/03/24 02:11:59;;;;;;;;;;;;;;;;;;1035547;28;1160;-35
2022/03/24 02:12:29;;;;;;;;;;;;;;;;;;1035577;28;988;-35
2022/03/24 02:13:01;;;;;;;;;;;;;;;;;;1039475;28;1902;-34
2022/03/24 02:13:31;;;;;;;;;;;;;;;;;;1043684;28;1301;-34
2022/03/24 02:14:02;;;;;;;;;;;;;;;;;;1047534;28;1254;-33
2022/03/24 02:14:34;;;;;;;;;;;;;;;;;;1047590;28;867;-34
2022/03/24 02:15:04;;;;;;;;;;;;;;;;;;1039722;28;1337;-33
2022/03/24 02:15:35;;;;;;;;;;;;;;;;;;1039161;28;1337;-34
2022/03/24 02:16:11;;;;;;;;;;;;;;;;;;1035342;28;1248;-35
2022/03/24 02:16:42;;;;;;;;;;;;;;;;;;1035470;28;1220;-30
2022/03/24 02:17:17;;;;;;;;;;;;;;;;;;1035335;28;1474;-34
2022/03/24 02:17:48;;;;;;;;;;;;;;;;;;1035455;28;807;-35
2022/03/24 02:18:19;;;;;;;;;;;;;;;;;;1036202;28;1117;-33
2022/03/24 02:18:49;;;;;;;;;;;;;;;;;;1040289;28;932;-31
2022/03/24 02:19:21;;;;;;;;;;;;;;;;;;1039561;28;1279;-35
2022/03/24 02:19:54;;;;;;;;;;;;;;;;;;1039587;28;881;-32
2022/03/24 02:20:28;;;;;;;;;;;;;;;;;;1039670;28;787;-31
2022/03/24 02:20:58;;;;;;;;;;;;;;;;;;1040357;28;902;-34
2022/03/24 02:21:29;;;;;;;;;;;;;;;;;;1043485;28;845;-33
2022/03/24 02:22:05;;;;;;;;;;;;;;;;;;1043898;28;853;-30
2022/03/24 02:22:36;;;;;;;;;;;;;;;;;;1043638;28;1003;-36
2022/03/24 02:23:06;;;;;;;;;;;;;;;;;;1043946;28;957;-30
2022/03/24 02:23:37;;;;;;;;;;;;;;;;;;1044052;28;948;-33
2022/03/24 02:24:08;;;;;;;;;;;;;;;;;;1043808;28;993;-33
2022/03/24 02:24:38;;;;;;;;;;;;;;;;;;1044199;28;878;-33
2022/03/24 02:25:09;;;;;;;;;;;;;;;;;;1043731;28;1092;-33
2022/03/24 02:25:40;;;;;;;;;;;;;;;;;;1044130;28;981;-31
2022/03/24 02:26:11;;;;;;;;;;;;;;;;;;1043890;28;958;-33
2022/03/24 02:26:42;;;;;;;;;;;;;;;;;;1044105;28;870;-33
2022/03/24 02:27:13;;;;;;;;;;;;;;;;;;1043830;28;830;-32
2022/03/24 02:27:49;;;;;;;;;;;;;;;;;;1044011;28;949;-31
2022/03/24 02:28:23;;;;;;;;;;;;;;;;;;1041557;28;1129;-33
2022/03/24 02:28:55;;;;;;;;;;;;;;;;;;1039914;28;933;-35
2022/03/24 02:29:26;;;;;;;;;;;;;;;;;;1039593;28;1280;-33
2022/03/24 02:29:57;;;;;;;;;;;;;;;;;;1040099;28;863;-34
2022/03/24 02:30:29;;;;;;;;;;;;;;;;;;1039742;28;965;-35
2022/03/24 02:30:59;;;;;;;;;;;;;;;;;;1040001;28;1021;-36
2022/03/24 02:31:30;;;;;;;;;;;;;;;;;;1039775;28;875;-33
2022/03/24 02:32:01;;;;;;;;;;;;;;;;;;1040026;28;949;-32
2022/03/24 02:32:32;;;;;;;;;;;;;;;;;;1039791;28;946;-34
2022/03/24 02:33:02;;;;;;;;;;;;;;;;;;1039857;28;1963;-31
2022/03/24 02:33:32;;;;;;;;;;;;;;;;;;1039671;28;969;-32
2022/03/24 02:34:52;;;;;;;;;;;;;;;;;;1039904;28;913;-31
2022/03/24 02:35:23;;;;;;;;;;;;;;;;;;1039907;28;834;-34
2022/03/24 02:35:53;;;;;;;;;;;;;;;;;;1039414;28;800;-34
2022/03/24 02:36:23;;;;;;;;;;;;;;;;;;1039873;28;1167;-33
2022/03/24 02:36:54;;;;;;;;;;;;;;;;;;1039910;28;930;-36
2022/03/24 02:37:25;;;;;;;;;;;;;;;;;;1039710;28;890;-34
2022/03/24 02:37:55;;;;;;;;;;;;;;;;;;1039705;28;957;-30
2022/03/24 02:38:26;;;;;;;;;;;;;;;;;;1039810;28;931;-35
2022/03/24 02:38:56;;;;;;;;;;;;;;;;;;1039970;28;977;-33
2022/03/24 02:39:26;;;;;;;;;;;;;;;;;;1039771;28;958;-35
2022/03/24 02:39:58;;;;;;;;;;;;;;;;;;1039751;28;723;-34
2022/03/24 02:40:28;;;;;;;;;;;;;;;;;;1039716;28;970;-35
2022/03/24 02:40:59;;;;;;;;;;;;;;;;;;1039968;28;839;-33
2022/03/24 02:41:31;;;;;;;;;;;;;;;;;;1039663;28;927;-34
2022/03/24 02:42:01;;;;;;;;;;;;;;;;;;1039954;28;965;-36
2022/03/24 02:42:32;;;;;;;;;;;;;;;;;;1039691;28;863;-33
2022/03/24 02:43:02;;;;;;;;;;;;;;;;;;1039943;28;834;-34
2022/03/24 02:43:33;;;;;;;;;;;;;;;;;;1039390;28;780;-33
2022/03/24 02:44:04;;;;;;;;;;;;;;;;;;1039856;28;891;-35
2022/03/24 02:44:34;;;;;;;;;;;;;;;;;;1039689;28;934;-32
2022/03/24 02:45:06;;;;;;;;;;;;;;;;;;1039860;28;895;-34
2022/03/24 02:45:37;;;;;;;;;;;;;;;;;;1039847;28;863;-33
2022/03/24 02:46:07;;;;;;;;;;;;;;;;;;1039631;28;993;-33
2022/03/24 02:46:37;;;;;;;;;;;;;;;;;;1039784;28;894;-29
2022/03/24 02:47:10;;;;;;;;;;;;;;;;;;1039904;28;794;-33
2022/03/24 02:47:40;;;;;;;;;;;;;;;;;;1039738;28;955;-32
2022/03/24 02:48:11;;;;;;;;;;;;;;;;;;1039689;28;807;-35
2022/03/24 02:48:41;;;;;;;;;;;;;;;;;;1039585;28;1305;-34
2022/03/24 02:49:12;;;;;;;;;;;;;;;;;;1039647;28;1201;-34
2022/03/24 02:49:43;;;;;;;;;;;;;;;;;;1039796;28;870;-34
2022/03/24 02:50:13;;;;;;;;;;;;;;;;;;1039779;28;810;-35
2022/03/24 02:50:44;;;;;;;;;;;;;;;;;;1039461;28;898;-33
2022/03/24 02:51:14;;;;;;;;;;;;;;;;;;1039886;28;819;-31
2022/03/24 02:51:44;;;;;;;;;;;;;;;;;;1039653;28;957;-35
2022/03/24 02:52:15;;;;;;;;;;;;;;;;;;1039820;28;941;-34
2022/03/24 02:52:45;;;;;;;;;;;;;;;;;;1039737;28;1024;-33
2022/03/24 02:53:16;;;;;;;;;;;;;;;;;;1039774;28;1973;-31
2022/03/24 02:53:46;;;;;;;;;;;;;;;;;;1039745;28;917;-35
2022/03/24 02:54:17;;;;;;;;;;;;;;;;;;1039808;28;922;-36
2022/03/24 02:54:48;;;;;;;;;;;;;;;;;;1039653;28;953;-33
2022/03/24 02:55:19;;;;;;;;;;;;;;;;;;1039902;28;901;-33
2022/03/24 02:55:49;;;;;;;;;;;;;;;;;;1039186;28;969;-33
2022/03/24 02:56:19;;;;;;;;;;;;;;;;;;1039657;28;802;-33
2022/03/24 02:56:50;;;;;;;;;;;;;;;;;;1039646;28;1004;-35
2022/03/24 02:57:20;;;;;;;;;;;;;;;;;;1039770;28;961;-31
2022/03/24 02:57:51;;;;;;;;;;;;;;;;;;1039605;28;1036;-34
2022/03/24 02:58:21;;;;;;;;;;;;;;;;;;1039403;28;854;-33
2022/03/24 02:58:51;;;;;;;;;;;;;;;;;;1039681;28;1328;-35
2022/03/24 02:59:22;;;;;;;;;;;;;;;;;;1039871;28;878;-35
2022/03/24 02:59:52;;;;;;;;;;;;;;;;;;1039551;28;1009;-35
2022/03/24 03:00:25;;;;;;;;;;;;;;;;;;1039889;28;930;-32
2022/03/24 03:00:56;;;;;;;;;;;;;;;;;;1039663;28;898;-31
2022/03/24 03:01:26;;;;;;;;;;;;;;;;;;1039717;28;882;-32
2022/03/24 03:01:59;;;;;;;;;;;;;;;;;;1039835;28;1004;-34
2022/03/24 03:02:29;;;;;;;;;;;;;;;;;;1039665;28;1021;-33
2022/03/24 03:03:00;;;;;;;;;;;;;;;;;;1039836;28;878;-35
2022/03/24 03:03:31;;;;;;;;;;;;;;;;;;1039698;28;953;-34
2022/03/24 03:04:01;;;;;;;;;;;;;;;;;;1039799;28;855;-34
2022/03/24 03:04:32;;;;;;;;;;;;;;;;;;1039672;28;954;-30
2022/03/24 03:05:03;;;;;;;;;;;;;;;;;;1039727;28;909;-35
2022/03/24 03:05:35;;;;;;;;;;;;;;;;;;1039396;28;909;-34
2022/03/24 03:06:05;;;;;;;;;;;;;;;;;;1039717;28;909;-33
2022/03/24 03:06:36;;;;;;;;;;;;;;;;;;1039451;28;926;-32
2022/03/24 03:07:07;;;;;;;;;;;;;;;;;;1039176;28;957;-33
2022/03/24 03:07:37;;;;;;;;;;;;;;;;;;1039372;28;985;-30
2022/03/24 03:08:09;;;;;;;;;;;;;;;;;;1039259;28;897;-33
2022/03/24 03:08:40;;;;;;;;;;;;;;;;;;1039754;28;1060;-29
2022/03/24 03:09:14;;;;;;;;;;;;;;;;;;1039592;28;830;-33
2022/03/24 03:09:45;;;;;;;;;;;;;;;;;;1039814;28;976;-33
2022/03/24 03:10:15;;;;;;;;;;;;;;;;;;1039632;28;942;-33
2022/03/24 03:10:45;;;;;;;;;;;;;;;;;;1039833;28;792;-35
2022/03/24 03:11:16;;;;;;;;;;;;;;;;;;1039788;28;799;-33
2022/03/24 03:11:47;;;;;;;;;;;;;;;;;;1039521;28;1178;-32
2022/03/24 03:12:17;;;;;;;;;;;;;;;;;;1039892;28;977;-34
2022/03/24 03:12:47;;;;;;;;;;;;;;;;;;1039416;28;902;-34
2022/03/24 03:13:18;;;;;;;;;;;;;;;;;;1035148;28;1910;-34
2022/03/24 03:13:49;;;;;;;;;;;;;;;;;;1035199;28;942;-35
2022/03/24 03:14:20;;;;;;;;;;;;;;;;;;1035223;28;863;-33
2022/03/24 03:14:50;;;;;;;;;;;;;;;;;;1035495;28;760;-33
2022/03/24 03:15:21;;;;;;;;;;;;;;;;;;1039722;28;823;-33
2022/03/24 03:15:51;;;;;;;;;;;;;;;;;;1039561;28;866;-35
2022/03/24 03:16:22;;;;;;;;;;;;;;;;;;1039708;28;881;-32
2022/03/24 03:16:52;;;;;;;;;;;;;;;;;;1039625;28;890;-33
2022/03/24 03:17:22;;;;;;;;;;;;;;;;;;1039865;28;866;-33
2022/03/24 03:17:53;;;;;;;;;;;;;;;;;;1039422;28;775;-34
2022/03/24 03:18:23;;;;;;;;;;;;;;;;;;1039741;28;831;-35
2022/03/24 03:18:55;;;;;;;;;;;;;;;;;;1039740;28;879;-34
2022/03/24 03:19:25;;;;;;;;;;;;;;;;;;1039733;28;851;-34
2022/03/24 03:19:56;;;;;;;;;;;;;;;;;;1039677;28;1008;-35
2022/03/24 03:20:26;;;;;;;;;;;;;;;;;;1039454;28;1647;-33
2022/03/24 03:20:57;;;;;;;;;;;;;;;;;;1039626;28;972;-31
2022/03/24 03:21:27;;;;;;;;;;;;;;;;;;1039667;28;851;-33
2022/03/24 03:21:58;;;;;;;;;;;;;;;;;;1039630;28;995;-33
2022/03/24 03:22:29;;;;;;;;;;;;;;;;;;1039667;28;874;-33
2022/03/24 03:23:03;;;;;;;;;;;;;;;;;;1039753;28;1031;-30
2022/03/24 03:23:38;;;;;;;;;;;;;;;;;;1039555;28;1009;-31
2022/03/24 03:24:09;;;;;;;;;;;;;;;;;;1039545;28;961;-31
2022/03/24 03:24:39;;;;;;;;;;;;;;;;;;1039628;28;830;-34
2022/03/24 03:25:10;;;;;;;;;;;;;;;;;;1040586;28;1474;-32
2022/03/24 03:25:40;;;;;;;;;;;;;;;;;;1043786;28;835;-31
2022/03/24 03:26:11;;;;;;;;;;;;;;;;;;1043612;28;1293;-33
2022/03/24 03:26:42;;;;;;;;;;;;;;;;;;1043858;28;965;-29
2022/03/24 03:27:13;;;;;;;;;;;;;;;;;;1043726;28;889;-33
2022/03/24 03:27:43;;;;;;;;;;;;;;;;;;1043351;28;997;-35
2022/03/24 03:28:14;;;;;;;;;;;;;;;;;;1042032;28;1049;-33
2022/03/24 03:28:44;;;;;;;;;;;;;;;;;;1039594;28;966;-36
2022/03/24 03:29:15;;;;;;;;;;;;;;;;;;1039708;28;835;-31
2022/03/24 03:29:45;;;;;;;;;;;;;;;;;;1039690;28;941;-34
2022/03/24 03:30:15;;;;;;;;;;;;;;;;;;1039536;28;807;-30
2022/03/24 03:30:46;;;;;;;;;;;;;;;;;;1039618;28;962;-29
2022/03/24 03:31:16;;;;;;;;;;;;;;;;;;1039705;28;886;-33
2022/03/24 03:31:46;;;;;;;;;;;;;;;;;;1039621;28;855;-34
2022/03/24 03:32:17;;;;;;;;;;;;;;;;;;1039723;28;903;-33
2022/03/24 03:32:47;;;;;;;;;;;;;;;;;;1039514;28;970;-33
2022/03/24 03:33:18;;;;;;;;;;;;;;;;;;1039684;28;1934;-32
2022/03/24 03:33:50;;;;;;;;;;;;;;;;;;1039500;28;886;-35
2022/03/24 03:34:24;;;;;;;;;;;;;;;;;;1039587;28;958;-36
2022/03/24 03:34:55;;;;;;;;;;;;;;;;;;1039609;28;794;-32
2022/03/24 03:35:27;;;;;;;;;;;;;;;;;;1039269;28;866;-33
2022/03/24 03:35:57;;;;;;;;;;;;;;;;;;1039706;28;874;-33
2022/03/24 03:36:28;;;;;;;;;;;;;;;;;;1039569;28;898;-33
2022/03/24 03:36:59;;;;;;;;;;;;;;;;;;1039639;28;945;-33
2022/03/24 03:37:30;;;;;;;;;;;;;;;;;;1039531;28;842;-35
2022/03/24 03:38:00;;;;;;;;;;;;;;;;;;1039524;28;910;-30
2022/03/24 03:38:32;;;;;;;;;;;;;;;;;;1039635;28;788;-34
2022/03/24 03:39:02;;;;;;;;;;;;;;;;;;1039571;28;926;-31
2022/03/24 03:39:33;;;;;;;;;;;;;;;;;;1039465;28;909;-36